Time;durP1;ratioP1;P1;durP2;ratioP2;P2;SDS_P1;SDS_P2;PMS_P1;PMS_P2;Temp;Humidity;BMP_temperature;BMP_pressure;BME280_temperature;BME280_humidity;BME280_pressure;Samples;Min_cycle;Max_cycle;Signal;HPM_P1;HPM_P2
2023/04/13 00:00:54;;;;;;;2.83;1.30;;;8.30;52.80;;;;;;4971847;28;20412;-71
2023/04/13 00:03:20;;;;;;;3.60;1.63;;;8.40;54.40;;;;;;4972180;28;20385;-71
2023/04/13 00:05:46;;;;;;;3.75;1.60;;;8.40;53.60;;;;;;4971861;28;20884;-69
2023/04/13 00:08:11;;;;;;;1.70;1.50;;;8.50;52.70;;;;;;4971997;28;20475;-71
2023/04/13 00:10:40;;;;;;;4.60;1.50;;;8.60;52.10;;;;;;4971918;28;20475;-71
2023/04/13 00:13:07;;;;;;;7.07;1.70;;;8.60;51.40;;;;;;4970922;28;20396;-70
2023/04/13 00:15:35;;;;;;;4.78;1.77;;;8.70;52.40;;;;;;4971909;28;20408;-70
2023/04/13 00:18:01;;;;;;;3.37;1.50;;;8.70;52.30;;;;;;4972069;28;20388;-70
2023/04/13 00:20:27;;;;;;;4.30;1.73;;;8.70;49.40;;;;;;4971846;28;20447;-70
2023/04/13 00:22:52;;;;;;;2.30;1.40;;;8.70;51.30;;;;;;4971443;28;20387;-71
2023/04/13 00:25:18;;;;;;;2.50;1.30;;;8.70;51.30;;;;;;4972140;28;20403;-70
2023/04/13 00:27:43;;;;;;;3.78;1.70;;;8.70;52.90;;;;;;4971834;28;20447;-70
2023/04/13 00:30:12;;;;;;;3.80;1.55;;;8.70;54.40;;;;;;4971520;28;20415;-71
2023/04/13 00:32:41;;;;;;;4.40;1.40;;;8.70;55.50;;;;;;4970945;28;20402;-70
2023/04/13 00:35:07;;;;;;;3.70;1.40;;;8.70;56.60;;;;;;4971621;28;20436;-70
2023/04/13 00:37:33;;;;;;;6.68;2.00;;;8.60;56.50;;;;;;4971415;28;20483;-70
2023/04/13 00:39:58;;;;;;;3.45;1.13;;;8.50;57.20;;;;;;4971496;28;20491;-70
2023/04/13 00:42:25;;;;;;;3.67;1.58;;;8.50;58.40;;;;;;4970922;28;20391;-70
2023/04/13 00:44:51;;;;;;;3.10;1.48;;;8.40;59.40;;;;;;4971833;28;20471;-71
2023/04/13 00:47:26;;;;;;;3.92;1.42;;;8.40;59.20;;;;;;4971738;28;20442;-71
2023/04/13 00:49:53;;;;;;;5.30;1.58;;;8.40;60.70;;;;;;4971586;28;20381;-71
2023/04/13 00:52:20;;;;;;;4.60;1.40;;;8.30;62.00;;;;;;4973205;28;20496;-71
2023/04/13 00:54:50;;;;;;;3.58;1.40;;;8.30;59.90;;;;;;4973279;28;20408;-70
2023/04/13 00:57:17;;;;;;;7.00;1.60;;;8.40;60.80;;;;;;4971532;28;20524;-71
2023/04/13 00:59:43;;;;;;;3.00;1.50;;;8.40;59.40;;;;;;4977064;28;20404;-70
2023/04/13 01:02:09;;;;;;;5.55;1.67;;;8.40;59.70;;;;;;4989183;28;20792;-71
2023/04/13 01:04:36;;;;;;;5.15;1.75;;;8.50;60.50;;;;;;4990319;28;20390;-71
2023/04/13 01:07:19;;;;;;;6.30;1.60;;;8.50;59.50;;;;;;4986624;28;20402;-71
2023/04/13 01:10:06;;;;;;;1.90;1.08;;;8.40;58.70;;;;;;4991220;28;20903;-72
2023/04/13 01:12:58;;;;;;;3.23;1.40;;;8.50;56.80;;;;;;4985974;28;20446;-72
2023/04/13 01:15:27;;;;;;;2.38;1.27;;;8.50;55.20;;;;;;4981430;28;20414;-72
2023/04/13 01:18:07;;;;;;;2.60;1.20;;;8.60;55.80;;;;;;4992887;28;20404;-71
2023/04/13 01:20:36;;;;;;;3.72;1.42;;;8.60;54.50;;;;;;4991562;28;20379;-72
2023/04/13 01:23:11;;;;;;;3.33;1.20;;;8.70;53.20;;;;;;4992435;28;20442;-72
2023/04/13 01:25:50;;;;;;;5.00;1.40;;;8.80;53.60;;;;;;4995668;28;20615;-72
2023/04/13 01:28:18;;;;;;;4.93;1.33;;;8.80;52.60;;;;;;4998120;28;20446;-72
2023/04/13 01:30:45;;;;;;;5.50;1.70;;;8.80;51.60;;;;;;4999314;28;20871;-72
2023/04/13 01:33:11;;;;;;;3.60;1.30;;;8.90;50.00;;;;;;4996411;28;20458;-71
2023/04/13 01:35:38;;;;;;;3.95;1.50;;;8.80;49.70;;;;;;4994220;28;20492;-71
2023/04/13 01:38:08;;;;;;;4.30;1.40;;;8.90;49.00;;;;;;4992858;28;20471;-70
2023/04/13 01:40:39;;;;;;;3.58;1.50;;;8.90;50.00;;;;;;4994388;28;20863;-71
2023/04/13 01:43:05;;;;;;;5.10;1.40;;;8.90;49.60;;;;;;4993799;28;20392;-71
2023/04/13 01:45:49;;;;;;;5.30;1.40;;;8.90;49.00;;;;;;4994296;28;20440;-71
2023/04/13 01:48:27;;;;;;;4.78;1.50;;;8.90;51.50;;;;;;4997224;28;20410;-72
2023/04/13 01:50:57;;;;;;;4.90;1.33;;;8.90;51.60;;;;;;4995744;28;20824;-72
2023/04/13 01:53:37;;;;;;;2.80;1.17;;;8.90;48.90;;;;;;5006028;28;20394;-71
2023/04/13 01:56:04;;;;;;;3.25;1.30;;;9.00;49.40;;;;;;5004568;28;20438;-71
2023/04/13 01:58:32;;;;;;;3.37;1.40;;;9.00;49.50;;;;;;4995615;28;20520;-72
2023/04/13 02:00:58;;;;;;;3.50;1.40;;;9.10;49.10;;;;;;4993511;28;20936;-72
2023/04/13 02:03:25;;;;;;;5.13;1.40;;;9.00;50.00;;;;;;4995396;28;20390;-72
2023/04/13 02:05:51;;;;;;;5.63;1.40;;;9.00;49.10;;;;;;4997316;28;20398;-72
2023/04/13 02:08:17;;;;;;;3.53;1.20;;;9.00;49.30;;;;;;4996813;28;20394;-72
2023/04/13 02:10:43;;;;;;;5.10;1.70;;;9.00;48.90;;;;;;4996050;28;20398;-72
2023/04/13 02:13:09;;;;;;;4.43;1.30;;;9.00;50.70;;;;;;4995551;28;20390;-72
2023/04/13 02:15:36;;;;;;;2.00;1.00;;;9.00;49.50;;;;;;4994405;28;20740;-72
2023/04/13 02:18:06;;;;;;;3.78;1.20;;;9.00;48.30;;;;;;4994490;28;20456;-72
2023/04/13 02:20:39;;;;;;;3.72;1.30;;;9.00;47.10;;;;;;4993994;28;20474;-72
2023/04/13 02:23:07;;;;;;;6.00;1.60;;;9.10;47.80;;;;;;4993650;28;20387;-72
2023/04/13 02:25:33;;;;;;;5.75;1.70;;;9.10;47.80;;;;;;4993804;28;20394;-71
2023/04/13 02:27:58;;;;;;;4.47;1.70;;;9.10;47.00;;;;;;4993520;28;20390;-72
2023/04/13 02:30:24;;;;;;;6.20;1.60;;;9.10;47.30;;;;;;4992539;28;20403;-72
2023/04/13 02:32:52;;;;;;;5.43;1.48;;;9.10;48.70;;;;;;4991610;28;20394;-72
2023/04/13 02:35:19;;;;;;;2.70;1.23;;;9.00;48.70;;;;;;4991961;28;20514;-72
2023/04/13 02:37:45;;;;;;;4.78;1.40;;;9.00;49.10;;;;;;4991970;28;20505;-72
2023/04/13 02:40:11;;;;;;;6.40;1.20;;;9.00;47.70;;;;;;4992347;28;20751;-71
2023/04/13 02:42:38;;;;;;;2.83;1.15;;;9.00;48.50;;;;;;4991508;28;20461;-72
2023/04/13 02:45:06;;;;;;;6.72;1.40;;;9.10;47.90;;;;;;4992321;28;20453;-71
2023/04/13 02:47:35;;;;;;;3.67;1.40;;;9.10;46.90;;;;;;4992056;28;20398;-71
2023/04/13 02:50:00;;;;;;;3.15;1.20;;;9.10;47.20;;;;;;4991960;28;20390;-71
2023/04/13 02:52:26;;;;;;;4.30;1.63;;;9.20;48.50;;;;;;4991598;28;20431;-72
2023/04/13 02:54:53;;;;;;;5.83;1.40;;;9.10;49.50;;;;;;4992176;28;20391;-71
2023/04/13 02:57:22;;;;;;;3.65;1.42;;;9.10;48.10;;;;;;4990546;28;20537;-71
2023/04/13 02:59:48;;;;;;;3.28;1.20;;;9.10;48.90;;;;;;4992151;28;20386;-70
2023/04/13 03:02:14;;;;;;;3.95;1.20;;;9.20;47.20;;;;;;4992561;28;20397;-72
2023/04/13 03:04:39;;;;;;;4.80;1.50;;;9.20;46.80;;;;;;4994922;28;20752;-72
2023/04/13 03:07:08;;;;;;;4.07;1.45;;;9.20;46.50;;;;;;4999705;28;20460;-71
2023/04/13 03:09:35;;;;;;;3.55;1.30;;;9.20;46.60;;;;;;4995945;28;20398;-71
2023/04/13 03:12:01;;;;;;;2.30;1.30;;;9.20;47.10;;;;;;4993457;28;20387;-72
2023/04/13 03:14:28;;;;;;;2.70;1.20;;;9.20;47.50;;;;;;4995725;28;20473;-71
2023/04/13 03:16:55;;;;;;;5.22;1.25;;;9.10;46.80;;;;;;4998610;28;20478;-70
2023/04/13 03:19:22;;;;;;;5.28;1.20;;;9.20;46.30;;;;;;4996462;28;20390;-70
2023/04/13 03:21:48;;;;;;;4.20;1.10;;;9.10;46.20;;;;;;4998584;28;20391;-73
2023/04/13 03:24:14;;;;;;;3.38;1.00;;;9.20;45.90;;;;;;4999695;28;20390;-71
2023/04/13 03:26:40;;;;;;;4.18;1.10;;;9.10;46.40;;;;;;4999249;28;20391;-72
2023/04/13 03:29:07;;;;;;;2.92;1.05;;;9.10;46.40;;;;;;4995216;28;1734723;-70
2023/04/13 03:31:33;;;;;;;2.20;1.20;;;9.10;46.40;;;;;;5003195;28;20573;-73
2023/04/13 03:33:58;;;;;;;3.65;1.25;;;9.20;45.70;;;;;;4994931;28;20457;-73
2023/04/13 03:36:26;;;;;;;2.10;0.98;;;9.20;45.50;;;;;;4994111;28;20421;-72
2023/04/13 03:38:52;;;;;;;1.70;0.95;;;9.20;45.30;;;;;;4993688;28;20466;-72
2023/04/13 03:41:18;;;;;;;5.53;1.02;;;9.10;47.50;;;;;;4992614;28;20931;-72
2023/04/13 03:43:43;;;;;;;3.10;1.17;;;9.00;48.00;;;;;;4992603;28;20382;-72
2023/04/13 03:46:09;;;;;;;2.97;1.00;;;9.00;48.60;;;;;;4992795;28;20418;-72
2023/04/13 03:48:35;;;;;;;2.08;1.10;;;9.10;48.30;;;;;;4992626;28;20421;-73
2023/04/13 03:51:01;;;;;;;2.30;1.00;;;9.10;48.20;;;;;;4992668;28;20420;-72
2023/04/13 03:53:27;;;;;;;1.77;0.90;;;9.10;48.10;;;;;;4992813;28;20398;-72
2023/04/13 03:55:53;;;;;;;3.10;1.10;;;9.10;47.90;;;;;;4992459;28;20402;-73
2023/04/13 03:58:19;;;;;;;4.37;1.10;;;9.00;48.20;;;;;;4991161;28;20401;-72
2023/04/13 04:00:45;;;;;;;5.95;1.10;;;9.10;48.30;;;;;;4992256;28;20961;-72
2023/04/13 04:03:10;;;;;;;2.60;1.00;;;9.00;49.70;;;;;;4991416;28;20399;-71
2023/04/13 04:05:39;;;;;;;1.80;1.00;;;9.00;52.50;;;;;;4992234;28;20386;-72
2023/04/13 04:08:04;;;;;;;3.35;1.10;;;9.00;54.50;;;;;;4994540;28;20391;-72
2023/04/13 04:10:30;;;;;;;3.00;1.30;;;8.90;55.80;;;;;;4994904;28;20772;-73
2023/04/13 04:12:56;;;;;;;3.92;1.13;;;8.80;55.70;;;;;;4994260;28;20457;-73
2023/04/13 04:15:21;;;;;;;4.53;1.00;;;8.80;57.60;;;;;;4992072;28;20457;-72
2023/04/13 04:17:47;;;;;;;3.70;1.30;;;8.80;58.70;;;;;;4997698;28;20402;-72
2023/04/13 04:20:13;;;;;;;1.90;1.00;;;8.70;60.20;;;;;;4998181;28;20390;-71
2023/04/13 04:22:40;;;;;;;2.03;0.98;;;8.70;60.30;;;;;;4991996;28;20793;-71
2023/04/13 04:25:07;;;;;;;3.30;1.30;;;8.70;63.10;;;;;;4996484;28;20406;-74
2023/04/13 04:27:37;;;;;;;2.20;1.00;;;8.60;62.90;;;;;;4990897;28;20456;-71
2023/04/13 04:30:09;;;;;;;4.60;0.90;;;8.60;63.50;;;;;;5001204;28;20476;-71
2023/04/13 04:32:35;;;;;;;3.50;1.00;;;8.60;65.50;;;;;;4990775;28;20514;-72
2023/04/13 04:35:02;;;;;;;4.75;1.20;;;8.50;67.10;;;;;;4991410;28;20469;-71
2023/04/13 04:37:28;;;;;;;4.00;1.00;;;8.50;68.90;;;;;;4990285;28;20405;-71
2023/04/13 04:39:54;;;;;;;2.58;0.90;;;8.40;70.00;;;;;;4990443;28;20721;-72
2023/04/13 04:42:20;;;;;;;5.22;1.10;;;8.40;70.90;;;;;;4990952;28;20398;-72
2023/04/13 04:44:49;;;;;;;3.30;1.20;;;8.40;71.40;;;;;;4992102;28;20390;-71
2023/04/13 04:47:17;;;;;;;2.42;0.93;;;8.40;72.50;;;;;;4992101;28;20383;-72
2023/04/13 04:49:43;;;;;;;1.70;0.98;;;8.40;68.20;;;;;;4990116;28;20398;-73
2023/04/13 04:52:11;;;;;;;2.17;1.08;;;8.50;68.00;;;;;;4991009;28;20386;-74
2023/04/13 04:54:38;;;;;;;3.75;1.00;;;8.50;65.70;;;;;;4990885;28;20864;-72
2023/04/13 04:57:04;;;;;;;3.80;1.30;;;8.50;64.10;;;;;;4991637;28;20442;-71
2023/04/13 04:59:29;;;;;;;2.95;1.08;;;8.50;65.80;;;;;;4992659;28;20914;-72
2023/04/13 05:01:55;;;;;;;3.83;1.10;;;8.60;63.30;;;;;;4994701;28;20382;-73
2023/04/13 05:04:21;;;;;;;3.70;1.13;;;8.60;61.80;;;;;;4995528;28;20390;-73
2023/04/13 05:06:47;;;;;;;3.00;1.07;;;8.60;62.30;;;;;;4993629;28;20394;-72
2023/04/13 05:09:13;;;;;;;3.50;1.40;;;8.70;63.00;;;;;;4995452;28;20868;-73
2023/04/13 05:11:40;;;;;;;2.75;1.05;;;8.60;62.10;;;;;;4994394;28;20394;-72
2023/04/13 05:14:06;;;;;;;3.28;1.00;;;8.70;62.00;;;;;;4995260;28;20405;-73
2023/04/13 05:16:32;;;;;;;4.30;1.30;;;8.70;60.80;;;;;;4997946;28;20414;-71
2023/04/13 05:18:58;;;;;;;2.45;1.10;;;8.70;63.00;;;;;;4998861;28;20425;-72
2023/04/13 05:21:25;;;;;;;3.80;1.40;;;8.70;61.40;;;;;;4998497;28;20903;-74
2023/04/13 05:23:51;;;;;;;2.75;1.10;;;8.70;63.90;;;;;;4999165;28;20402;-74
2023/04/13 05:26:19;;;;;;;2.30;1.40;;;8.70;62.60;;;;;;4999901;28;20394;-73
2023/04/13 05:28:44;;;;;;;3.92;1.40;;;8.80;62.20;;;;;;5000227;28;20397;-74
2023/04/13 05:31:15;;;;;;;4.60;1.60;;;8.80;62.80;;;;;;5000443;28;20430;-74
2023/04/13 05:33:41;;;;;;;3.55;1.48;;;8.90;61.70;;;;;;5006062;28;20390;-72
2023/04/13 05:36:07;;;;;;;2.90;1.30;;;8.80;62.40;;;;;;5006338;28;20418;-72
2023/04/13 05:38:33;;;;;;;2.40;1.30;;;8.80;62.40;;;;;;5007362;28;20458;-74
2023/04/13 05:40:59;;;;;;;5.00;2.00;;;8.80;61.70;;;;;;4998997;28;20398;-72
2023/04/13 05:43:25;;;;;;;4.65;1.85;;;8.80;62.40;;;;;;5000579;28;20868;-72
2023/04/13 05:45:51;;;;;;;6.10;1.83;;;8.80;62.30;;;;;;5000276;28;20383;-72
2023/04/13 05:48:16;;;;;;;6.60;1.60;;;9.00;62.20;;;;;;5000965;28;20743;-73
2023/04/13 05:50:42;;;;;;;2.70;1.40;;;9.10;58.60;;;;;;5000181;28;20457;-72
2023/04/13 05:53:08;;;;;;;5.45;1.90;;;9.20;60.00;;;;;;4999838;28;20394;-72
2023/04/13 05:55:34;;;;;;;3.40;1.60;;;9.30;58.90;;;;;;5000402;28;20782;-73
2023/04/13 05:58:02;;;;;;;5.93;2.00;;;9.40;58.40;;;;;;5001530;28;20394;-71
2023/04/13 06:00:28;;;;;;;5.30;2.10;;;9.40;56.60;;;;;;4998479;28;20391;-72
2023/04/13 06:02:54;;;;;;;6.13;2.65;;;9.50;53.60;;;;;;4997512;28;20386;-72
2023/04/13 06:05:21;;;;;;;5.03;1.73;;;9.50;55.60;;;;;;4997133;28;20412;-73
2023/04/13 06:07:46;;;;;;;7.50;2.00;;;9.60;54.40;;;;;;4998800;28;20888;-73
2023/04/13 06:10:15;;;;;;;5.28;1.80;;;9.50;55.90;;;;;;4996058;28;20395;-73
2023/04/13 06:12:41;;;;;;;3.42;1.50;;;9.60;54.60;;;;;;4997031;28;20526;-73
2023/04/13 06:15:08;;;;;;;5.15;1.70;;;9.60;55.80;;;;;;4995284;28;20391;-72
2023/04/13 06:17:34;;;;;;;3.17;1.90;;;9.70;53.40;;;;;;4995506;28;20469;-73
2023/04/13 06:20:00;;;;;;;5.28;2.00;;;9.70;51.50;;;;;;4993839;28;20390;-71
2023/04/13 06:22:26;;;;;;;5.97;2.30;;;9.70;54.00;;;;;;4994127;28;20390;-74
2023/04/13 06:24:52;;;;;;;5.97;2.00;;;9.80;54.70;;;;;;4994554;28;20525;-72
2023/04/13 06:27:17;;;;;;;5.80;2.00;;;9.90;51.10;;;;;;4994936;28;20419;-72
2023/04/13 06:29:44;;;;;;;3.13;1.67;;;10.10;51.40;;;;;;4994957;28;20474;-73
2023/04/13 06:32:10;;;;;;;8.15;2.20;;;10.10;49.90;;;;;;4994208;28;20382;-72
2023/04/13 06:34:36;;;;;;;6.07;2.33;;;10.20;48.20;;;;;;4994433;28;20445;-72
2023/04/13 06:37:02;;;;;;;8.00;2.05;;;10.20;47.80;;;;;;4994241;28;20418;-73
2023/04/13 06:39:27;;;;;;;4.65;2.13;;;10.10;47.10;;;;;;4994120;28;20406;-71
2023/04/13 06:41:53;;;;;;;5.85;2.00;;;10.20;49.30;;;;;;4993666;28;20421;-72
2023/04/13 06:44:19;;;;;;;9.43;1.70;;;10.20;48.60;;;;;;4995383;28;20425;-72
2023/04/13 06:46:44;;;;;;;6.85;1.90;;;10.20;48.80;;;;;;4994871;28;20399;-71
2023/04/13 06:49:12;;;;;;;5.82;1.90;;;10.10;45.50;;;;;;4994381;28;20394;-73
2023/04/13 06:51:37;;;;;;;6.45;1.92;;;10.10;47.30;;;;;;4994050;28;20383;-72
2023/04/13 06:54:03;;;;;;;7.53;1.83;;;10.10;47.30;;;;;;4995217;28;20872;-74
2023/04/13 06:56:28;;;;;;;6.60;2.70;;;10.20;50.20;;;;;;5000298;28;20407;-72
2023/04/13 06:59:00;;;;;;;7.95;2.45;;;10.30;47.90;;;;;;5010960;28;20401;-72
2023/04/13 07:01:26;;;;;;;5.95;2.42;;;10.40;47.80;;;;;;5012596;28;20398;-72
2023/04/13 07:03:52;;;;;;;5.40;1.80;;;10.60;45.20;;;;;;5000088;28;20803;-72
2023/04/13 07:06:20;;;;;;;4.77;1.43;;;10.60;44.60;;;;;;5001076;28;20424;-72
2023/04/13 07:08:46;;;;;;;5.68;2.10;;;10.80;44.30;;;;;;4998300;28;20390;-73
2023/04/13 07:11:12;;;;;;;4.93;1.70;;;10.90;43.40;;;;;;4997886;28;20400;-73
2023/04/13 07:13:38;;;;;;;3.10;1.20;;;10.90;41.00;;;;;;5001057;28;20704;-72
2023/04/13 07:16:04;;;;;;;4.17;1.53;;;10.90;40.90;;;;;;4997304;28;20497;-72
2023/04/13 07:18:30;;;;;;;5.20;1.50;;;11.00;41.30;;;;;;4997540;28;20387;-71
2023/04/13 07:20:56;;;;;;;6.30;2.10;;;11.10;39.10;;;;;;4994189;28;20393;-71
2023/04/13 07:23:22;;;;;;;5.20;1.90;;;11.10;40.20;;;;;;4994679;28;20383;-73
2023/04/13 07:25:47;;;;;;;3.58;1.50;;;11.00;39.30;;;;;;4994368;28;20387;-71
2023/04/13 07:28:13;;;;;;;8.35;1.70;;;10.80;40.90;;;;;;4996454;28;20395;-74
2023/04/13 07:30:45;;;;;;;6.00;1.40;;;10.80;40.50;;;;;;4995699;28;20500;-74
2023/04/13 07:33:11;;;;;;;4.93;1.80;;;10.70;41.80;;;;;;4995717;28;20397;-74
2023/04/13 07:35:37;;;;;;;6.10;1.60;;;10.70;42.50;;;;;;4993648;28;20410;-71
2023/04/13 07:38:03;;;;;;;4.50;1.67;;;10.70;43.00;;;;;;4993154;28;20470;-72
2023/04/13 07:40:28;;;;;;;4.93;1.70;;;10.60;42.40;;;;;;4992555;28;20927;-71
2023/04/13 07:42:54;;;;;;;8.73;1.80;;;10.60;43.30;;;;;;4992342;28;20395;-71
2023/04/13 07:45:19;;;;;;;4.15;1.63;;;10.60;45.10;;;;;;4992484;28;20390;-72
2023/04/13 07:47:46;;;;;;;5.57;1.60;;;10.60;42.80;;;;;;4992704;28;20398;-71
2023/04/13 07:50:12;;;;;;;3.88;1.60;;;10.80;41.50;;;;;;4992496;28;20473;-73
2023/04/13 07:52:38;;;;;;;4.65;1.67;;;10.80;42.10;;;;;;4990473;28;20521;-72
2023/04/13 07:55:04;;;;;;;5.07;2.10;;;10.90;42.50;;;;;;4992330;28;20751;-73
2023/04/13 07:57:30;;;;;;;6.20;2.20;;;10.80;41.60;;;;;;4992196;28;20894;-72
2023/04/13 07:59:56;;;;;;;2.72;1.60;;;10.80;43.40;;;;;;4974688;28;20402;-74
2023/04/13 08:02:21;;;;;;;5.18;1.70;;;10.80;42.40;;;;;;4992047;28;20390;-71
2023/04/13 08:04:47;;;;;;;8.43;1.95;;;10.90;41.50;;;;;;4991908;28;20461;-72
2023/04/13 08:07:13;;;;;;;6.40;2.25;;;10.90;41.70;;;;;;4992140;28;20398;-73
2023/04/13 08:09:40;;;;;;;5.60;2.00;;;11.10;40.40;;;;;;4991734;28;20383;-71
2023/04/13 08:12:08;;;;;;;5.05;1.60;;;11.30;39.90;;;;;;4991259;28;20442;-73
2023/04/13 08:14:34;;;;;;;8.80;2.33;;;11.50;38.20;;;;;;4992201;28;20397;-73
2023/04/13 08:17:00;;;;;;;5.83;1.90;;;11.90;36.90;;;;;;4992304;28;20513;-72
2023/04/13 08:19:26;;;;;;;5.50;2.35;;;12.30;35.00;;;;;;4991771;28;20390;-71
2023/04/13 08:21:52;;;;;;;7.97;2.30;;;12.60;34.30;;;;;;4991209;28;20446;-73
2023/04/13 08:24:21;;;;;;;8.63;2.70;;;12.80;31.70;;;;;;4992013;28;20874;-73
2023/04/13 08:26:47;;;;;;;7.00;2.08;;;12.90;29.90;;;;;;4991838;28;20426;-72
2023/04/13 08:29:13;;;;;;;9.82;2.55;;;12.90;30.70;;;;;;4991643;28;20797;-72
2023/04/13 08:31:39;;;;;;;9.20;2.70;;;12.60;30.80;;;;;;4991108;28;20387;-72
2023/04/13 08:34:05;;;;;;;8.33;2.50;;;12.20;33.00;;;;;;4992977;28;21031;-72
2023/04/13 08:36:31;;;;;;;11.20;2.80;;;12.00;34.00;;;;;;4991357;28;20416;-72
2023/04/13 08:38:57;;;;;;;10.93;2.55;;;11.90;35.20;;;;;;4991833;28;20813;-71
2023/04/13 08:41:24;;;;;;;6.07;2.50;;;11.70;35.40;;;;;;4990830;28;20469;-72
2023/04/13 08:43:50;;;;;;;9.83;2.80;;;11.70;36.50;;;;;;4991800;28;20386;-71
2023/04/13 08:46:20;;;;;;;8.05;2.63;;;11.50;35.80;;;;;;4992043;28;20386;-73
2023/04/13 08:48:47;;;;;;;10.53;2.90;;;11.50;37.50;;;;;;4991675;28;20398;-72
2023/04/13 08:51:13;;;;;;;6.53;2.50;;;11.40;37.30;;;;;;4991063;28;20752;-72
2023/04/13 08:53:39;;;;;;;12.65;3.45;;;11.10;39.10;;;;;;4991544;28;20382;-73
2023/04/13 08:56:11;;;;;;;7.40;3.10;;;11.10;40.80;;;;;;4991876;28;20411;-72
2023/04/13 08:58:40;;;;;;;8.30;3.23;;;11.30;38.30;;;;;;4992030;28;20387;-72
2023/04/13 09:01:05;;;;;;;7.05;2.75;;;11.50;37.70;;;;;;4991805;28;20386;-73
2023/04/13 09:03:40;;;;;;;8.88;2.95;;;11.70;36.40;;;;;;4992836;28;20393;-72
2023/04/13 09:06:09;;;;;;;9.27;2.65;;;11.70;35.70;;;;;;4991955;28;20386;-72
2023/04/13 09:08:35;;;;;;;9.48;3.05;;;11.60;37.30;;;;;;4991909;28;20899;-73
2023/04/13 09:11:02;;;;;;;11.73;3.40;;;11.50;39.30;;;;;;4991386;28;20489;-72
2023/04/13 09:13:28;;;;;;;8.05;2.75;;;11.80;38.20;;;;;;4992212;28;20398;-72
2023/04/13 09:15:54;;;;;;;9.73;3.70;;;12.20;35.60;;;;;;4995894;28;20601;-72
2023/04/13 09:18:19;;;;;;;12.27;3.43;;;12.60;33.90;;;;;;4991577;28;20872;-72
2023/04/13 09:20:59;;;;;;;11.70;3.30;;;12.90;32.10;;;;;;4991269;28;20378;-71
2023/04/13 09:23:24;;;;;;;11.73;3.20;;;13.20;29.40;;;;;;4991121;28;20382;-71
2023/04/13 09:26:03;;;;;;;12.13;2.80;;;13.40;27.50;;;;;;4991976;28;20445;-72
2023/04/13 09:28:29;;;;;;;14.73;3.30;;;13.40;25.30;;;;;;4992732;28;20795;-73
2023/04/13 09:31:04;;;;;;;11.15;3.10;;;13.60;27.20;;;;;;4995280;28;20402;-72
2023/04/13 09:33:34;;;;;;;9.70;2.75;;;13.60;24.90;;;;;;5007172;28;20496;-71
2023/04/13 09:36:09;;;;;;;8.70;3.17;;;13.30;24.60;;;;;;5003591;28;20442;-72
2023/04/13 09:38:34;;;;;;;10.15;3.00;;;13.20;25.50;;;;;;4993973;28;20478;-72
2023/04/13 09:41:00;;;;;;;13.77;3.40;;;13.10;26.20;;;;;;4997182;28;20641;-72
2023/04/13 09:43:34;;;;;;;12.02;3.20;;;13.00;25.00;;;;;;5004381;28;20421;-71
2023/04/13 09:46:00;;;;;;;10.10;2.83;;;12.80;26.90;;;;;;5006054;28;20390;-72
2023/04/13 09:48:26;;;;;;;15.50;3.70;;;12.60;27.80;;;;;;5004478;28;20418;-73
2023/04/13 09:51:03;;;;;;;14.40;3.50;;;12.50;29.00;;;;;;5001140;28;20760;-72
2023/04/13 09:53:45;;;;;;;15.68;3.70;;;12.30;31.90;;;;;;4995120;28;20397;-72
2023/04/13 09:56:10;;;;;;;16.75;4.00;;;12.30;29.80;;;;;;4995513;28;20429;-72
2023/04/13 09:58:44;;;;;;;24.80;3.83;;;12.50;32.00;;;;;;4995084;28;20387;-73
2023/04/13 10:01:10;;;;;;;15.82;3.90;;;12.70;30.90;;;;;;5000412;28;20449;-73
2023/04/13 10:03:36;;;;;;;14.32;4.30;;;12.80;30.30;;;;;;4995726;28;20406;-70
2023/04/13 10:06:08;;;;;;;13.25;4.00;;;12.80;30.50;;;;;;4997996;28;20406;-71
2023/04/13 10:08:38;;;;;;;13.88;3.80;;;13.00;29.40;;;;;;5002971;28;20417;-72
2023/04/13 10:11:12;;;;;;;15.18;4.25;;;13.10;28.80;;;;;;4994763;28;20414;-71
2023/04/13 10:13:49;;;;;;;14.25;3.80;;;13.30;28.00;;;;;;4994772;28;20588;-73
2023/04/13 10:16:47;;;;;;;15.10;3.80;;;13.40;24.60;;;;;;4994702;28;20398;-71
2023/04/13 10:19:16;;;;;;;15.15;3.80;;;13.30;25.00;;;;;;4993788;28;20409;-71
2023/04/13 10:21:45;;;;;;;14.63;4.00;;;13.20;26.40;;;;;;4993037;28;20461;-71
2023/04/13 10:24:11;;;;;;;14.77;3.83;;;13.20;25.70;;;;;;4993811;28;20398;-71
2023/04/13 10:26:38;;;;;;;21.48;3.65;;;13.20;24.90;;;;;;4993586;28;20394;-71
2023/04/13 10:29:05;;;;;;;16.42;3.47;;;13.10;24.50;;;;;;4993542;28;20736;-71
2023/04/13 10:31:36;;;;;;;12.65;3.60;;;12.90;25.40;;;;;;4993120;28;20470;-71
2023/04/13 10:34:03;;;;;;;14.55;4.60;;;12.60;25.40;;;;;;4993408;28;20387;-71
2023/04/13 10:36:41;;;;;;;20.27;4.15;;;12.40;27.60;;;;;;4993383;28;20403;-72
2023/04/13 10:39:08;;;;;;;15.98;3.90;;;12.30;28.20;;;;;;4994386;28;20406;-73
2023/04/13 10:41:35;;;;;;;12.43;3.57;;;12.40;28.40;;;;;;4993354;28;20387;-73
2023/04/13 10:44:06;;;;;;;12.10;3.20;;;12.60;27.40;;;;;;4994367;28;20383;-73
2023/04/13 10:46:35;;;;;;;17.58;4.32;;;12.60;27.10;;;;;;4993934;28;20395;-74
2023/04/13 10:49:02;;;;;;;20.30;3.90;;;12.80;27.00;;;;;;4993822;28;20389;-72
2023/04/13 10:51:42;;;;;;;13.68;3.80;;;13.00;26.10;;;;;;4992674;28;20541;-71
2023/04/13 10:54:09;;;;;;;13.13;3.78;;;12.90;26.30;;;;;;4992176;28;20524;-71
2023/04/13 10:56:35;;;;;;;13.10;3.55;;;13.00;25.40;;;;;;4993595;28;20403;-71
2023/04/13 10:59:01;;;;;;;14.73;3.50;;;13.10;25.10;;;;;;4994037;28;20720;-71
2023/04/13 11:01:29;;;;;;;14.05;3.50;;;13.30;24.20;;;;;;4993029;28;20386;-71
2023/04/13 11:03:56;;;;;;;13.75;3.47;;;13.60;22.80;;;;;;4993575;28;20411;-73
2023/04/13 11:06:22;;;;;;;12.68;3.60;;;13.70;22.50;;;;;;4993482;28;20783;-72
2023/04/13 11:08:48;;;;;;;11.30;3.30;;;13.60;22.00;;;;;;4993889;28;20405;-72
2023/04/13 11:11:24;;;;;;;18.63;3.80;;;13.50;22.10;;;;;;4992612;28;20394;-71
2023/04/13 11:13:49;;;;;;;16.33;3.80;;;13.50;22.70;;;;;;4993369;28;20390;-70
2023/04/13 11:16:15;;;;;;;13.80;3.67;;;13.60;21.90;;;;;;4992917;28;20694;-71
2023/04/13 11:18:41;;;;;;;11.73;3.17;;;13.60;22.30;;;;;;4992963;28;20436;-70
2023/04/13 11:21:16;;;;;;;13.48;3.33;;;13.50;21.50;;;;;;4992268;28;20393;-72
2023/04/13 11:23:52;;;;;;;11.00;2.97;;;13.50;22.50;;;;;;4993033;28;20394;-72
2023/04/13 11:26:18;;;;;;;18.90;3.90;;;13.80;21.00;;;;;;4992402;28;20395;-71
2023/04/13 11:28:45;;;;;;;16.52;3.90;;;14.10;20.30;;;;;;4992604;28;20390;-72
2023/04/13 11:31:11;;;;;;;11.82;3.33;;;14.20;19.90;;;;;;4992332;28;20411;-72
2023/04/13 11:33:38;;;;;;;15.70;3.60;;;14.20;20.00;;;;;;4992548;28;20394;-72
2023/04/13 11:36:04;;;;;;;15.05;3.42;;;14.30;19.40;;;;;;4992732;28;20472;-72
2023/04/13 11:38:31;;;;;;;12.30;3.30;;;14.30;18.70;;;;;;4992530;28;20397;-72
2023/04/13 11:41:04;;;;;;;12.98;3.47;;;14.40;18.50;;;;;;4992319;28;20503;-72
2023/04/13 11:43:30;;;;;;;14.77;3.85;;;14.50;19.20;;;;;;4991361;28;20481;-72
2023/04/13 11:45:56;;;;;;;15.07;3.10;;;14.60;18.30;;;;;;4992368;28;20493;-72
2023/04/13 11:48:22;;;;;;;16.77;3.50;;;14.50;18.30;;;;;;4992998;28;20383;-72
2023/04/13 11:50:49;;;;;;;15.93;4.22;;;14.40;18.80;;;;;;4992533;28;20394;-72
2023/04/13 11:53:15;;;;;;;14.32;3.75;;;14.30;19.40;;;;;;4992339;28;20390;-72
2023/04/13 11:55:41;;;;;;;14.17;3.77;;;14.00;20.10;;;;;;4993214;28;20406;-72
2023/04/13 11:58:09;;;;;;;13.57;3.72;;;13.80;21.30;;;;;;4992496;28;20383;-72
2023/04/13 12:00:40;;;;;;;17.77;4.40;;;13.60;21.80;;;;;;4993188;28;20912;-72
2023/04/13 12:03:13;;;;;;;19.63;4.00;;;13.60;23.10;;;;;;4991758;28;20393;-72
2023/04/13 12:05:40;;;;;;;14.60;3.40;;;13.90;22.40;;;;;;5007216;28;20490;-71
2023/04/13 12:08:07;;;;;;;9.02;2.88;;;14.20;19.80;;;;;;5002956;28;20861;-72
2023/04/13 12:10:34;;;;;;;11.75;3.25;;;14.40;19.50;;;;;;4993926;28;20401;-73
2023/04/13 12:13:07;;;;;;;16.45;3.75;;;14.50;18.80;;;;;;4993214;28;20600;-72
2023/04/13 12:15:36;;;;;;;11.48;3.35;;;14.50;18.00;;;;;;4993848;28;20408;-72
2023/04/13 12:18:03;;;;;;;12.37;3.30;;;14.40;18.00;;;;;;4991436;28;20844;-72
2023/04/13 12:20:42;;;;;;;10.73;3.22;;;14.40;18.30;;;;;;4991669;28;20386;-72
2023/04/13 12:23:22;;;;;;;13.55;3.53;;;14.60;18.30;;;;;;4991617;28;20396;-72
2023/04/13 12:26:04;;;;;;;12.00;3.30;;;14.90;17.90;;;;;;4974676;28;20406;-72
2023/04/13 12:28:31;;;;;;;15.03;3.73;;;15.50;17.40;;;;;;4992063;28;20810;-71
2023/04/13 12:31:05;;;;;;;12.47;3.60;;;15.80;15.80;;;;;;4990915;28;20474;-72
2023/04/13 12:33:30;;;;;;;23.42;3.80;;;15.90;16.00;;;;;;4992526;28;20513;-72
2023/04/13 12:35:56;;;;;;;10.83;3.70;;;16.00;16.60;;;;;;4992216;28;20497;-71
2023/04/13 12:38:23;;;;;;;13.67;3.30;;;16.00;14.70;;;;;;4991601;28;20398;-71
2023/04/13 12:40:53;;;;;;;11.55;3.38;;;16.40;14.30;;;;;;4991161;28;20401;-71
2023/04/13 12:43:19;;;;;;;15.95;4.10;;;16.60;13.70;;;;;;4991081;28;20784;-72
2023/04/13 12:45:45;;;;;;;12.88;2.90;;;16.60;13.30;;;;;;4991378;28;20725;-72
2023/04/13 12:48:10;;;;;;;17.80;3.70;;;16.60;13.50;;;;;;4991439;28;20397;-71
2023/04/13 12:50:36;;;;;;;15.88;3.70;;;16.10;13.60;;;;;;4991485;28;20461;-71